Terminal Aerodrome Forecast
Issued by NWS

Home | Current Version | Previous Version | Text Only | Print | Product List | Glossary On
Versions: 1 2 3 4 5 6 7 8 9 10 11 12 13 14 15 16 17 18 19 20 21
000
FTUS44 KLZK 191410 AAA
TAFADF
TAF AMD
KADF 191410Z 1914/2012 18008KT P6SM VCSH SCT005 OVC010
      WS020/20040KT
     FM191800 19009G16KT P6SM VCSH SCT010 BKN015 OVC100
      WS020/19035KT
     FM192100 18010G18KT P6SM VCSH SCT015 BKN025 PROB30 2000/2006 TS
      BKN015CB
     FM200600 17011G17KT P6SM OVC015=

USA.gov is the U.S. government's official web portal to all federal, state and local government web resources and services.